createdAt,value
2019-01-11T00:00:02.244Z,34.37
2019-01-11T00:02:34.154Z,35.47
2019-01-11T00:05:04.742Z,35.40
2019-01-11T00:07:34.996Z,35.10
2019-01-11T00:10:06.188Z,35.83
2019-01-11T00:12:36.392Z,35.70
2019-01-11T00:15:06.270Z,34.27
2019-01-11T00:17:36.444Z,35.73
2019-01-11T00:20:07.417Z,35.70
2019-01-11T00:22:37.716Z,35.83
2019-01-11T00:25:08.174Z,36.23
2019-01-11T00:27:38.436Z,33.73
2019-01-11T00:30:08.953Z,37.57
2019-01-11T00:32:39.172Z,36.53
2019-01-11T00:35:09.683Z,36.17
2019-01-11T00:37:39.421Z,35.17
2019-01-11T00:40:09.561Z,36.27
2019-01-11T00:42:40.990Z,35.07
2019-01-11T00:45:11.517Z,35.47
2019-01-11T00:47:43.044Z,35.73
2019-01-11T00:50:13.426Z,34.73
2019-01-11T00:52:44.159Z,35.43
2019-01-11T00:55:14.775Z,36.43
2019-01-11T00:57:46.260Z,35.07
2019-01-11T01:00:19.561Z,32.93
2019-01-11T01:02:50.095Z,34.47
2019-01-11T01:05:20.934Z,34.33
2019-01-11T01:07:51.438Z,34.73
2019-01-11T01:10:24.089Z,33.13
2019-01-11T01:12:54.509Z,34.23
2019-01-11T01:15:25.811Z,36.07
2019-01-11T01:17:56.147Z,34.37
2019-01-11T01:20:26.390Z,35.23
2019-01-11T01:22:56.110Z,35.17
2019-01-11T01:25:25.657Z,35.63
2019-01-11T01:27:56.069Z,36.93
2019-01-11T01:30:25.645Z,36.03
2019-01-11T01:32:55.863Z,34.73
2019-01-11T01:35:25.523Z,36.90
2019-01-11T01:37:55.203Z,36.37
2019-01-11T01:40:25.373Z,35.97
2019-01-11T01:42:55.196Z,34.67
2019-01-11T01:45:25.709Z,35.90
2019-01-11T01:47:55.371Z,34.20
2019-01-11T01:50:25.611Z,34.67
2019-01-11T01:52:55.909Z,35.43
2019-01-11T01:55:26.166Z,35.57
2019-01-11T01:57:55.825Z,35.53
2019-01-11T02:00:26.025Z,34.23
2019-01-11T02:02:56.465Z,34.33
2019-01-11T02:05:26.748Z,35.67
2019-01-11T02:07:57.087Z,36.30
2019-01-11T02:10:27.345Z,34.73
2019-01-11T02:12:57.078Z,34.17
2019-01-11T02:15:27.260Z,34.53
2019-01-11T02:17:57.561Z,33.67
2019-01-11T02:20:27.815Z,32.73
2019-01-11T02:22:58.090Z,36.17
2019-01-11T02:25:28.509Z,34.47
2019-01-11T02:27:58.861Z,36.33
2019-01-11T02:30:29.501Z,35.13
2019-01-11T02:32:59.826Z,34.10
2019-01-11T02:35:30.116Z,35.37
2019-01-11T02:38:00.745Z,34.53
2019-01-11T02:40:30.993Z,34.63
2019-01-11T02:43:01.302Z,32.87
2019-01-11T02:45:31.471Z,35.00
2019-01-11T02:48:01.826Z,34.97
2019-01-11T02:50:32.136Z,34.30
2019-01-11T02:53:02.450Z,33.83
2019-01-11T02:55:32.765Z,34.13
2019-01-11T02:58:03.029Z,33.43
2019-01-11T03:00:33.324Z,32.43
2019-01-11T03:03:03.676Z,32.83
2019-01-11T03:05:33.954Z,32.40
2019-01-11T03:08:04.538Z,28.83
2019-01-11T03:10:35.211Z,33.83
2019-01-11T03:13:06.620Z,34.03
2019-01-11T03:15:36.895Z,32.53
2019-01-11T03:18:07.160Z,32.67
2019-01-11T03:20:37.480Z,32.10
2019-01-11T03:23:07.762Z,31.47
2019-01-11T03:25:38.161Z,31.20
2019-01-11T03:28:08.528Z,30.70
2019-01-11T03:30:38.961Z,29.07
2019-01-11T03:33:09.551Z,28.17
2019-01-11T03:35:40.006Z,30.73
2019-01-11T03:38:09.831Z,30.33
2019-01-11T03:40:40.396Z,29.57
2019-01-11T03:43:10.822Z,29.83
2019-01-11T03:45:40.483Z,24.60
2019-01-11T03:48:10.141Z,29.87
2019-01-11T03:50:40.826Z,29.50
2019-01-11T03:53:10.661Z,26.00
2019-01-11T03:55:40.915Z,25.70
2019-01-11T03:58:11.339Z,25.60
2019-01-11T04:00:41.687Z,25.70
2019-01-11T04:03:12.019Z,26.23
2019-01-11T04:05:42.243Z,26.53
2019-01-11T04:08:12.571Z,25.87
2019-01-11T04:10:42.866Z,23.77
2019-01-11T04:13:13.445Z,25.67
2019-01-11T04:15:43.811Z,22.83
2019-01-11T04:18:38.865Z,25.47
2019-01-11T04:21:08.507Z,23.83
2019-01-11T04:23:38.769Z,24.27
2019-01-11T04:26:08.403Z,24.60
2019-01-11T04:28:38.624Z,24.77
2019-01-11T04:31:08.950Z,23.77
2019-01-11T04:33:39.205Z,23.50
2019-01-11T04:36:09.487Z,25.63
2019-01-11T04:38:40.307Z,24.20
2019-01-11T04:41:10.751Z,24.70
2019-01-11T04:43:41.051Z,26.43
2019-01-11T04:46:11.381Z,24.37
2019-01-11T04:48:41.675Z,25.87
2019-01-11T04:51:12.225Z,23.33
2019-01-11T04:53:42.479Z,24.10
2019-01-11T04:56:12.797Z,24.87
2019-01-11T04:58:43.056Z,25.53
2019-01-11T05:01:13.383Z,25.97
2019-01-11T05:03:43.065Z,24.33
2019-01-11T05:06:13.326Z,25.10
2019-01-11T05:08:43.637Z,24.97
2019-01-11T05:11:15.662Z,24.80
2019-01-11T05:13:51.360Z,24.10
2019-01-11T05:16:21.926Z,24.60
2019-01-11T05:18:52.114Z,25.67
2019-01-11T05:21:22.463Z,24.10
2019-01-11T05:23:52.699Z,24.13
2019-01-11T05:26:22.992Z,25.80
2019-01-11T05:28:53.256Z,25.60
2019-01-11T05:31:23.613Z,25.47
2019-01-11T05:33:53.927Z,24.40
2019-01-11T05:36:24.235Z,25.90
2019-01-11T05:38:54.546Z,25.37
2019-01-11T05:41:24.845Z,26.17
2019-01-11T05:43:55.109Z,25.17
2019-01-11T05:46:25.419Z,26.77
2019-01-11T05:48:55.731Z,26.33
2019-01-11T05:51:26.047Z,24.73
2019-01-11T05:53:56.291Z,26.70
2019-01-11T05:56:26.639Z,26.27
2019-01-11T05:59:07.869Z,25.77
2019-01-11T06:01:38.187Z,27.07
2019-01-11T06:04:27.444Z,26.80
2019-01-11T06:07:09.977Z,27.90
2019-01-11T06:09:41.392Z,26.33
2019-01-11T06:12:14.849Z,29.53
2019-01-11T06:14:44.521Z,26.40
2019-01-11T06:17:15.194Z,27.97
2019-01-11T06:19:45.598Z,28.20
2019-01-11T06:22:16.156Z,28.20
2019-01-11T06:24:46.504Z,28.90
2019-01-11T06:27:26.590Z,27.80
2019-01-11T06:29:59.983Z,29.67
2019-01-11T06:32:30.322Z,26.97
2019-01-11T06:35:00.030Z,29.80
2019-01-11T06:37:30.351Z,24.07
2019-01-11T06:40:00.675Z,29.70
2019-01-11T06:42:31.030Z,29.87
2019-01-11T06:45:01.307Z,29.70
2019-01-11T06:47:31.726Z,30.27
2019-01-11T06:50:02.113Z,30.47
2019-01-11T06:52:32.402Z,29.27
2019-01-11T06:55:02.120Z,29.50
2019-01-11T06:57:31.966Z,28.63
2019-01-11T07:00:01.565Z,29.80
2019-01-11T07:02:32.659Z,28.00
2019-01-11T07:05:03.062Z,27.50
2019-01-11T07:07:33.493Z,27.37
2019-01-11T07:10:03.306Z,28.43
2019-01-11T07:12:33.759Z,27.63
2019-01-11T07:15:04.661Z,29.20
2019-01-11T07:17:35.200Z,30.63
2019-01-11T07:20:05.945Z,29.70
2019-01-11T07:22:36.595Z,31.07
2019-01-11T07:25:07.614Z,30.20
2019-01-11T07:27:42.819Z,30.73
2019-01-11T07:30:14.106Z,30.30
2019-01-11T07:32:44.538Z,30.70
2019-01-11T07:35:14.922Z,31.40
2019-01-11T07:37:45.538Z,30.07
2019-01-11T07:40:15.893Z,31.40
2019-01-11T07:42:47.325Z,30.47
2019-01-11T07:45:18.412Z,31.23
2019-01-11T07:47:48.786Z,31.70
2019-01-11T07:50:19.185Z,31.43
2019-01-11T07:52:49.529Z,29.93
2019-01-11T07:55:19.838Z,30.07
2019-01-11T07:57:50.155Z,30.47
2019-01-11T08:00:20.481Z,30.03
2019-01-11T08:02:50.864Z,30.57
2019-01-11T08:05:20.526Z,28.73
2019-01-11T08:07:51.971Z,29.40
2019-01-11T08:10:22.345Z,30.10
2019-01-11T08:12:52.864Z,31.13
2019-01-11T08:15:24.089Z,31.90
2019-01-11T08:17:54.443Z,29.23
2019-01-11T08:20:24.724Z,29.00
2019-01-11T08:22:55.100Z,31.37
2019-01-11T08:25:25.527Z,29.27
2019-01-11T08:27:55.943Z,32.50
2019-01-11T08:30:26.228Z,31.77
2019-01-11T08:32:57.029Z,31.53
2019-01-11T08:35:27.313Z,31.77
2019-01-11T08:37:57.689Z,32.00
2019-01-11T08:40:27.978Z,30.67
2019-01-11T08:42:58.314Z,30.73
2019-01-11T08:45:28.599Z,32.90
2019-01-11T08:47:58.889Z,30.20
2019-01-11T08:50:30.358Z,31.00
2019-01-11T08:53:00.642Z,30.63
2019-01-11T08:55:31.649Z,31.90
2019-01-11T08:58:02.059Z,31.20
2019-01-11T09:00:32.391Z,32.20
2019-01-11T09:03:02.877Z,30.33
2019-01-11T09:05:32.585Z,31.23
2019-01-11T09:08:02.867Z,31.43
2019-01-11T09:10:33.217Z,31.67
2019-01-11T09:13:03.498Z,28.83
2019-01-11T09:15:34.393Z,29.17
2019-01-11T09:18:14.796Z,29.10
2019-01-11T09:20:45.181Z,28.37
2019-01-11T09:23:15.597Z,29.30
2019-01-11T09:25:46.097Z,29.10
2019-01-11T09:28:16.611Z,30.17
2019-01-11T09:30:46.986Z,30.07
2019-01-11T09:33:20.685Z,30.53
2019-01-11T09:35:49.329Z,32.83
2019-01-11T09:38:19.993Z,31.30
2019-01-11T09:40:50.711Z,32.40
2019-01-11T09:43:21.015Z,32.83
2019-01-11T09:45:51.411Z,33.83
2019-01-11T09:48:21.690Z,33.30
2019-01-11T09:50:51.976Z,35.70
2019-01-11T09:53:22.303Z,36.30
2019-01-11T09:55:52.761Z,35.90
2019-01-11T09:58:23.033Z,33.77
2019-01-11T10:00:58.989Z,36.13
2019-01-11T10:03:25.221Z,34.63
2019-01-11T10:05:55.552Z,34.77
2019-01-11T10:08:25.877Z,35.73
2019-01-11T10:10:56.271Z,35.73
2019-01-11T10:13:26.546Z,34.10
2019-01-11T10:15:56.926Z,34.63
2019-01-11T10:18:27.262Z,34.33
2019-01-11T10:20:57.648Z,33.67
2019-01-11T10:23:28.201Z,33.20
2019-01-11T10:25:58.507Z,34.33
2019-01-11T10:28:28.268Z,34.87
2019-01-11T10:31:00.745Z,35.67
2019-01-11T10:33:35.971Z,33.33
2019-01-11T10:36:02.342Z,34.20
2019-01-11T10:38:32.640Z,35.63
2019-01-11T10:41:04.286Z,35.20
2019-01-11T10:43:34.586Z,37.83
2019-01-11T10:46:12.794Z,37.83
2019-01-11T10:48:43.320Z,37.43
2019-01-11T10:51:13.638Z,37.73
2019-01-11T10:53:43.962Z,37.93
2019-01-11T10:56:14.289Z,40.67
2019-01-11T10:58:44.617Z,39.93
2019-01-11T11:01:14.882Z,38.40
2019-01-11T11:03:45.312Z,37.57
2019-01-11T11:06:15.659Z,39.73
2019-01-11T11:08:46.052Z,38.43
2019-01-11T11:11:16.761Z,42.30
2019-01-11T11:13:47.344Z,41.90
2019-01-11T11:16:17.602Z,42.23
2019-01-11T11:18:47.942Z,41.80
2019-01-11T11:21:18.299Z,41.13
2019-01-11T11:23:48.601Z,42.30
2019-01-11T11:26:18.910Z,44.23
2019-01-11T11:28:48.572Z,42.43
2019-01-11T11:31:18.710Z,41.33
2019-01-11T11:33:48.991Z,42.03
2019-01-11T11:36:19.316Z,41.33
2019-01-11T11:38:49.670Z,40.17
2019-01-11T11:41:19.925Z,40.47
2019-01-11T11:43:50.250Z,41.53
2019-01-11T11:46:19.963Z,40.77
2019-01-11T11:48:50.145Z,41.60
2019-01-11T11:51:20.529Z,39.80
2019-01-11T11:53:50.887Z,39.27
2019-01-11T11:56:21.222Z,40.50
2019-01-11T11:58:51.591Z,40.97
2019-01-11T12:01:22.140Z,39.67
2019-01-11T12:03:52.448Z,39.83
2019-01-11T12:06:22.743Z,41.27
2019-01-11T12:08:53.348Z,38.73
2019-01-11T12:11:23.791Z,41.10
2019-01-11T12:13:54.067Z,39.40
2019-01-11T12:16:24.424Z,42.37
2019-01-11T12:18:54.677Z,39.53
2019-01-11T12:21:25.039Z,40.77
2019-01-11T12:23:55.763Z,42.63
2019-01-11T12:26:26.423Z,41.63
2019-01-11T12:28:56.665Z,42.70
2019-01-11T12:31:27.079Z,40.43
2019-01-11T12:33:57.491Z,41.43
2019-01-11T12:36:27.874Z,40.77
2019-01-11T12:38:58.359Z,42.27
2019-01-11T12:41:28.638Z,43.20
2019-01-11T12:43:58.963Z,42.77
2019-01-11T12:46:29.443Z,42.73
2019-01-11T12:48:59.745Z,43.27
2019-01-11T12:51:30.171Z,42.30
2019-01-11T12:54:00.571Z,40.23
2019-01-11T12:56:30.875Z,43.77
2019-01-11T12:59:01.353Z,41.20
2019-01-11T13:01:31.687Z,41.30
2019-01-11T13:04:02.196Z,41.33
2019-01-11T13:06:32.547Z,40.70
2019-01-11T13:09:02.896Z,41.93
2019-01-11T13:11:34.561Z,42.47
2019-01-11T13:14:05.186Z,41.87
2019-01-11T13:16:35.573Z,40.63
2019-01-11T13:19:05.938Z,44.27
2019-01-11T13:21:37.051Z,43.77
2019-01-11T13:24:07.622Z,43.50
2019-01-11T13:26:38.020Z,41.47
2019-01-11T13:29:08.325Z,41.40
2019-01-11T13:31:38.975Z,40.90
2019-01-11T13:34:09.300Z,40.47
2019-01-11T13:36:40.219Z,40.60
2019-01-11T13:39:12.426Z,41.60
2019-01-11T13:41:42.684Z,41.43
2019-01-11T13:44:13.386Z,39.80
2019-01-11T13:46:43.730Z,39.20
2019-01-11T13:49:14.195Z,40.47
2019-01-11T13:51:44.523Z,41.17
2019-01-11T13:54:14.796Z,39.80
2019-01-11T13:56:45.636Z,41.20
2019-01-11T13:59:15.165Z,41.80
2019-01-11T14:01:44.880Z,40.47
2019-01-11T14:04:15.199Z,40.10
2019-01-11T14:06:45.604Z,39.57
2019-01-11T14:09:15.600Z,39.67
2019-01-11T14:11:46.094Z,39.07
2019-01-11T14:14:16.601Z,39.13
2019-01-11T14:16:47.018Z,38.57
2019-01-11T14:19:17.539Z,38.40
2019-01-11T14:21:47.783Z,38.63
2019-01-11T14:24:18.118Z,38.13
2019-01-11T14:26:48.472Z,36.90
2019-01-11T14:29:19.046Z,40.20
2019-01-11T14:31:49.497Z,37.97
2019-01-11T14:34:19.976Z,38.47
2019-01-11T14:36:50.902Z,37.77
2019-01-11T14:39:20.754Z,36.50
2019-01-11T14:41:50.714Z,39.20
2019-01-11T14:44:21.175Z,38.13
2019-01-11T14:46:50.885Z,38.63
2019-01-11T14:49:21.176Z,39.00
2019-01-11T14:51:51.554Z,37.50
2019-01-11T14:54:21.846Z,37.17
2019-01-11T14:56:52.337Z,37.03
2019-01-11T14:59:22.716Z,37.13
2019-01-11T15:01:53.580Z,36.60
2019-01-11T15:04:23.911Z,36.97
2019-01-11T15:06:54.434Z,38.10
2019-01-11T15:09:24.708Z,36.70
2019-01-11T15:11:54.454Z,38.03
2019-01-11T15:14:27.384Z,37.33
2019-01-11T15:16:57.705Z,37.83
2019-01-11T15:19:28.074Z,38.50
2019-01-11T15:21:58.417Z,37.53
2019-01-11T15:24:28.762Z,37.60
2019-01-11T15:26:59.125Z,37.67
2019-01-11T15:29:30.616Z,35.67
2019-01-11T15:32:01.267Z,36.40
2019-01-11T15:34:31.771Z,36.27
2019-01-11T15:37:03.039Z,36.97
2019-01-11T15:39:33.347Z,36.13
2019-01-11T15:42:03.752Z,35.93
2019-01-11T15:44:34.161Z,35.33
2019-01-11T15:47:03.889Z,35.33
2019-01-11T15:49:34.191Z,35.23
2019-01-11T15:52:04.450Z,37.20
2019-01-11T15:54:34.762Z,35.73
2019-01-11T15:57:05.061Z,35.30
2019-01-11T15:59:58.751Z,36.37
2019-01-11T16:02:29.277Z,35.90
2019-01-11T16:05:00.228Z,35.93
2019-01-11T16:07:31.276Z,35.63
2019-01-11T16:10:07.128Z,34.77
2019-01-11T16:12:58.442Z,36.33
2019-01-11T16:16:21.552Z,35.57
2019-01-11T16:18:53.340Z,34.73
2019-01-11T16:21:24.140Z,35.60
2019-01-11T16:23:54.793Z,35.87
2019-01-11T16:26:25.207Z,34.93
2019-01-11T16:28:55.851Z,34.10
2019-01-11T16:31:26.296Z,36.23
2019-01-11T16:33:56.766Z,37.47
2019-01-11T16:36:27.087Z,37.53
2019-01-11T16:38:57.467Z,36.03
2019-01-11T16:41:30.830Z,36.93
2019-01-11T16:44:01.678Z,36.40
2019-01-11T16:46:31.902Z,36.33
2019-01-11T16:49:02.263Z,36.00
2019-01-11T16:51:32.875Z,37.03
2019-01-11T16:54:03.240Z,36.77
2019-01-11T16:56:33.698Z,38.07
2019-01-11T16:59:04.011Z,34.87
2019-01-11T17:01:34.288Z,37.87
2019-01-11T17:04:05.181Z,37.23
2019-01-11T17:06:44.652Z,37.97
2019-01-11T17:09:11.330Z,37.73
2019-01-11T17:11:41.605Z,38.03
2019-01-11T17:14:12.034Z,37.57
2019-01-11T17:16:41.785Z,37.23
2019-01-11T17:19:12.173Z,36.17
2019-01-11T17:21:42.715Z,37.70
2019-01-11T17:24:13.084Z,35.97
2019-01-11T17:26:43.359Z,36.93
2019-01-11T17:29:13.916Z,35.60
2019-01-11T17:31:44.408Z,35.37
2019-01-11T17:34:15.289Z,35.73
2019-01-11T17:36:45.743Z,34.77
2019-01-11T17:39:16.047Z,33.70
2019-01-11T17:41:46.446Z,33.77
2019-01-11T17:44:16.820Z,34.53
2019-01-11T17:46:47.246Z,34.10
2019-01-11T17:49:17.672Z,33.20
2019-01-11T17:51:48.015Z,33.73
2019-01-11T17:54:18.326Z,32.87
2019-01-11T17:56:48.800Z,33.17
2019-01-11T17:59:19.107Z,31.67
2019-01-11T18:01:48.877Z,31.63
2019-01-11T18:04:19.214Z,32.03
2019-01-11T18:06:49.696Z,33.83
2019-01-11T18:09:20.038Z,30.37
2019-01-11T18:11:50.425Z,30.43
2019-01-11T18:14:20.734Z,32.20
2019-01-11T18:16:51.150Z,31.63
2019-01-11T18:19:21.534Z,32.07
2019-01-11T18:21:51.881Z,33.13
2019-01-11T18:24:23.267Z,32.77
2019-01-11T18:26:53.934Z,30.93
2019-01-11T18:29:24.362Z,29.57
2019-01-11T18:31:54.716Z,32.83
2019-01-11T18:34:25.047Z,29.87
2019-01-11T18:36:56.620Z,31.40
2019-01-11T18:39:27.199Z,31.17
2019-01-11T18:41:57.547Z,32.17
2019-01-11T18:44:27.266Z,30.73
2019-01-11T18:46:56.909Z,31.63
2019-01-11T18:49:27.264Z,32.27
2019-01-11T18:51:57.545Z,30.20
2019-01-11T18:54:27.837Z,30.60
2019-01-11T18:56:58.212Z,30.43
2019-01-11T18:59:28.585Z,31.53
2019-01-11T19:01:58.837Z,30.87
2019-01-11T19:04:29.201Z,30.73
2019-01-11T19:06:59.604Z,31.50
2019-01-11T19:09:30.016Z,29.13
2019-01-11T19:12:00.383Z,30.53
2019-01-11T19:14:30.642Z,29.83
2019-01-11T19:17:01.022Z,29.57
2019-01-11T19:19:31.561Z,29.07
2019-01-11T19:22:02.003Z,29.87
2019-01-11T19:24:32.337Z,27.60
2019-01-11T19:27:02.611Z,29.33
2019-01-11T19:29:33.305Z,29.03
2019-01-11T19:32:03.730Z,27.27
2019-01-11T19:34:33.468Z,27.10
2019-01-11T19:37:03.898Z,27.00
2019-01-11T19:39:33.669Z,27.43
2019-01-11T19:42:03.926Z,26.87
2019-01-11T19:44:34.336Z,27.07
2019-01-11T19:47:04.701Z,27.30
2019-01-11T19:49:35.088Z,25.33
2019-01-11T19:52:05.552Z,26.40
2019-01-11T19:54:35.907Z,24.90
2019-01-11T19:57:06.408Z,25.20
2019-01-11T19:59:36.839Z,24.33
2019-01-11T20:02:07.625Z,25.40
2019-01-11T20:04:38.006Z,24.13
2019-01-11T20:07:08.718Z,22.17
2019-01-11T20:09:39.037Z,22.70
2019-01-11T20:12:09.328Z,23.60
2019-01-11T20:14:39.598Z,23.57
2019-01-11T20:17:14.020Z,21.70
2019-01-11T20:19:41.896Z,22.20
2019-01-11T20:22:12.286Z,21.97
2019-01-11T20:24:44.147Z,22.67
2019-01-11T20:27:14.471Z,21.70
2019-01-11T20:29:44.757Z,22.23
2019-01-11T20:32:15.086Z,21.40
2019-01-11T20:34:45.407Z,22.00
2019-01-11T20:37:22.377Z,20.50
2019-01-11T20:39:52.659Z,21.53
2019-01-11T20:42:22.985Z,21.53
2019-01-11T20:44:53.739Z,21.60
2019-01-11T20:47:24.124Z,21.03
2019-01-11T20:49:54.460Z,21.87
2019-01-11T20:52:24.838Z,21.03
2019-01-11T20:54:55.171Z,21.10
2019-01-11T20:57:25.652Z,21.50
2019-01-11T20:59:56.004Z,21.70
2019-01-11T21:02:26.435Z,21.37
2019-01-11T21:04:56.749Z,20.93
2019-01-11T21:07:27.110Z,21.03
2019-01-11T21:09:57.542Z,20.37
2019-01-11T21:12:28.013Z,21.20
2019-01-11T21:14:58.319Z,20.73
2019-01-11T21:17:28.667Z,20.97
2019-01-11T21:19:59.023Z,20.93
2019-01-11T21:22:29.466Z,20.80
2019-01-11T21:25:00.223Z,20.97
2019-01-11T21:27:31.133Z,20.93
2019-01-11T21:30:01.691Z,21.03
2019-01-11T21:32:32.931Z,20.80
2019-01-11T21:35:03.290Z,19.83
2019-01-11T21:37:33.551Z,19.50
2019-01-11T21:40:05.007Z,21.30
2019-01-11T21:42:35.293Z,20.40
2019-01-11T21:45:06.300Z,20.70
2019-01-11T21:47:36.596Z,21.03
2019-01-11T21:50:10.298Z,19.83
2019-01-11T21:52:40.892Z,20.40
2019-01-11T21:55:13.293Z,20.37
2019-01-11T21:57:44.306Z,20.77
2019-01-11T22:00:16.470Z,20.93
2019-01-11T22:02:46.763Z,20.73
2019-01-11T22:05:17.152Z,19.63
2019-01-11T22:07:47.594Z,20.47
2019-01-11T22:10:17.971Z,20.83
2019-01-11T22:12:48.250Z,21.87
2019-01-11T22:15:19.055Z,20.47
2019-01-11T22:17:49.380Z,20.00
2019-01-11T22:20:19.882Z,20.67
2019-01-11T22:22:54.258Z,20.37
2019-01-11T22:25:24.495Z,19.07
2019-01-11T22:27:54.850Z,18.40
2019-01-11T22:30:30.108Z,19.23
2019-01-11T22:32:56.820Z,19.33
2019-01-11T22:35:27.091Z,21.73
2019-01-11T22:37:57.346Z,19.13
2019-01-11T22:40:28.588Z,18.57
2019-01-11T22:43:00.180Z,19.60
2019-01-11T22:45:30.366Z,18.67
2019-01-11T22:48:00.665Z,18.73
2019-01-11T22:50:30.954Z,18.33
2019-01-11T22:53:01.244Z,18.87
2019-01-11T22:55:31.520Z,17.70
2019-01-11T22:58:01.837Z,19.13
2019-01-11T23:01:04.015Z,18.57
2019-01-11T23:03:38.711Z,19.33
2019-01-11T23:06:23.988Z,18.53
2019-01-11T23:08:54.282Z,18.97
2019-01-11T23:12:32.904Z,19.00
2019-01-11T23:15:04.636Z,18.40
2019-01-11T23:17:48.070Z,19.63
2019-01-11T23:20:18.369Z,18.87
2019-01-11T23:22:48.671Z,18.70
2019-01-11T23:25:18.994Z,19.30
2019-01-11T23:27:49.367Z,20.40
2019-01-11T23:30:19.692Z,19.30
2019-01-11T23:32:49.478Z,18.17
2019-01-11T23:35:19.748Z,17.90
2019-01-11T23:37:49.980Z,18.57
2019-01-11T23:40:20.273Z,18.57
2019-01-11T23:42:50.659Z,17.40
2019-01-11T23:45:20.938Z,17.47
2019-01-11T23:47:51.295Z,18.90
2019-01-11T23:50:21.524Z,18.47
2019-01-11T23:52:51.959Z,20.83
2019-01-11T23:55:22.307Z,17.07
2019-01-11T23:57:52.601Z,19.63
